sensor_id;sensor_type;location;lat;lon;timestamp;P1;durP1;ratioP1;P2;durP2;ratioP2
67904;SDS011;54709;43.614;1.576;2023-03-31T00:01:26;11.10;;;2.85;;
67904;SDS011;54709;43.614;1.576;2023-03-31T00:03:53;5.95;;;2.25;;
67904;SDS011;54709;43.614;1.576;2023-03-31T00:06:27;10.68;;;2.85;;
67904;SDS011;54709;43.614;1.576;2023-03-31T00:08:53;11.13;;;3.03;;
67904;SDS011;54709;43.614;1.576;2023-03-31T00:11:19;7.57;;;2.50;;
67904;SDS011;54709;43.614;1.576;2023-03-31T00:13:45;9.68;;;2.33;;
67904;SDS011;54709;43.614;1.576;2023-03-31T00:16:11;6.00;;;2.22;;
67904;SDS011;54709;43.614;1.576;2023-03-31T00:18:37;9.18;;;3.22;;
67904;SDS011;54709;43.614;1.576;2023-03-31T00:21:14;9.95;;;2.60;;
67904;SDS011;54709;43.614;1.576;2023-03-31T00:23:54;9.60;;;2.70;;
67904;SDS011;54709;43.614;1.576;2023-03-31T00:26:21;9.18;;;2.60;;
67904;SDS011;54709;43.614;1.576;2023-03-31T00:28:48;9.10;;;2.90;;
67904;SDS011;54709;43.614;1.576;2023-03-31T00:31:14;7.50;;;2.60;;
67904;SDS011;54709;43.614;1.576;2023-03-31T00:33:40;10.20;;;2.60;;
67904;SDS011;54709;43.614;1.576;2023-03-31T00:36:05;8.82;;;2.67;;
67904;SDS011;54709;43.614;1.576;2023-03-31T00:38:31;8.77;;;3.08;;
67904;SDS011;54709;43.614;1.576;2023-03-31T00:40:57;9.02;;;2.70;;
67904;SDS011;54709;43.614;1.576;2023-03-31T00:45:59;10.93;;;2.58;;
67904;SDS011;54709;43.614;1.576;2023-03-31T00:48:40;11.13;;;2.90;;
67904;SDS011;54709;43.614;1.576;2023-03-31T00:51:11;9.05;;;2.45;;
67904;SDS011;54709;43.614;1.576;2023-03-31T00:53:37;10.20;;;2.53;;
67904;SDS011;54709;43.614;1.576;2023-03-31T00:56:06;10.25;;;2.35;;
67904;SDS011;54709;43.614;1.576;2023-03-31T00:58:35;9.45;;;3.03;;
67904;SDS011;54709;43.614;1.576;2023-03-31T01:01:07;9.85;;;2.53;;
67904;SDS011;54709;43.614;1.576;2023-03-31T01:03:38;11.13;;;2.75;;
67904;SDS011;54709;43.614;1.576;2023-03-31T01:06:04;8.98;;;2.95;;
67904;SDS011;54709;43.614;1.576;2023-03-31T01:08:34;13.00;;;2.65;;
67904;SDS011;54709;43.614;1.576;2023-03-31T01:11:02;9.13;;;2.60;;
67904;SDS011;54709;43.614;1.576;2023-03-31T01:13:30;9.95;;;2.70;;
67904;SDS011;54709;43.614;1.576;2023-03-31T01:15:56;6.60;;;2.72;;
67904;SDS011;54709;43.614;1.576;2023-03-31T01:18:22;10.23;;;2.88;;
67904;SDS011;54709;43.614;1.576;2023-03-31T01:31:59;11.80;;;3.20;;
67904;SDS011;54709;43.614;1.576;2023-03-31T01:47:39;8.15;;;3.10;;
67904;SDS011;54709;43.614;1.576;2023-03-31T01:55:38;10.00;;;2.90;;
67904;SDS011;54709;43.614;1.576;2023-03-31T01:58:09;8.45;;;3.00;;
67904;SDS011;54709;43.614;1.576;2023-03-31T02:00:38;12.38;;;2.58;;
67904;SDS011;54709;43.614;1.576;2023-03-31T02:03:14;9.95;;;3.17;;
67904;SDS011;54709;43.614;1.576;2023-03-31T02:05:43;12.55;;;3.00;;
67904;SDS011;54709;43.614;1.576;2023-03-31T02:08:16;9.88;;;2.90;;
67904;SDS011;54709;43.614;1.576;2023-03-31T02:10:45;11.45;;;3.28;;
67904;SDS011;54709;43.614;1.576;2023-03-31T02:13:12;6.75;;;2.53;;
67904;SDS011;54709;43.614;1.576;2023-03-31T02:15:39;9.43;;;2.67;;
67904;SDS011;54709;43.614;1.576;2023-03-31T02:18:06;11.25;;;2.90;;
67904;SDS011;54709;43.614;1.576;2023-03-31T02:20:35;10.60;;;2.90;;
67904;SDS011;54709;43.614;1.576;2023-03-31T02:23:02;13.90;;;3.00;;
67904;SDS011;54709;43.614;1.576;2023-03-31T02:25:31;10.20;;;3.13;;
67904;SDS011;54709;43.614;1.576;2023-03-31T02:33:36;9.63;;;2.90;;
67904;SDS011;54709;43.614;1.576;2023-03-31T02:36:02;10.55;;;3.30;;
67904;SDS011;54709;43.614;1.576;2023-03-31T02:38:28;9.30;;;2.90;;
67904;SDS011;54709;43.614;1.576;2023-03-31T02:41:00;14.02;;;3.38;;
67904;SDS011;54709;43.614;1.576;2023-03-31T02:43:25;9.60;;;3.25;;
67904;SDS011;54709;43.614;1.576;2023-03-31T02:45:50;7.93;;;3.03;;
67904;SDS011;54709;43.614;1.576;2023-03-31T02:53:54;11.93;;;3.22;;
67904;SDS011;54709;43.614;1.576;2023-03-31T03:02:03;10.70;;;3.38;;
67904;SDS011;54709;43.614;1.576;2023-03-31T03:04:35;7.10;;;2.97;;
67904;SDS011;54709;43.614;1.576;2023-03-31T03:07:21;9.40;;;3.20;;
67904;SDS011;54709;43.614;1.576;2023-03-31T03:17:39;12.85;;;3.10;;
67904;SDS011;54709;43.614;1.576;2023-03-31T03:20:06;7.93;;;2.75;;
67904;SDS011;54709;43.614;1.576;2023-03-31T03:22:33;10.32;;;3.30;;
67904;SDS011;54709;43.614;1.576;2023-03-31T03:25:00;10.30;;;3.17;;
67904;SDS011;54709;43.614;1.576;2023-03-31T03:27:25;12.65;;;3.33;;
67904;SDS011;54709;43.614;1.576;2023-03-31T03:29:52;11.95;;;3.50;;
67904;SDS011;54709;43.614;1.576;2023-03-31T03:32:17;13.13;;;3.30;;
67904;SDS011;54709;43.614;1.576;2023-03-31T03:34:43;7.82;;;3.22;;
67904;SDS011;54709;43.614;1.576;2023-03-31T03:37:08;12.43;;;3.35;;
67904;SDS011;54709;43.614;1.576;2023-03-31T03:39:33;10.88;;;3.40;;
67904;SDS011;54709;43.614;1.576;2023-03-31T03:41:59;11.57;;;3.45;;
67904;SDS011;54709;43.614;1.576;2023-03-31T03:44:24;11.48;;;3.42;;
67904;SDS011;54709;43.614;1.576;2023-03-31T03:46:50;9.43;;;2.92;;
67904;SDS011;54709;43.614;1.576;2023-03-31T03:49:15;9.90;;;3.40;;
67904;SDS011;54709;43.614;1.576;2023-03-31T03:51:41;8.45;;;3.83;;
67904;SDS011;54709;43.614;1.576;2023-03-31T03:54:06;12.85;;;3.45;;
67904;SDS011;54709;43.614;1.576;2023-03-31T03:56:31;13.60;;;4.07;;
67904;SDS011;54709;43.614;1.576;2023-03-31T03:58:57;15.32;;;3.60;;
67904;SDS011;54709;43.614;1.576;2023-03-31T04:01:22;10.63;;;3.55;;
67904;SDS011;54709;43.614;1.576;2023-03-31T04:03:48;11.13;;;3.60;;
67904;SDS011;54709;43.614;1.576;2023-03-31T04:06:13;12.50;;;3.35;;
67904;SDS011;54709;43.614;1.576;2023-03-31T04:08:39;12.35;;;3.53;;
67904;SDS011;54709;43.614;1.576;2023-03-31T04:11:10;13.68;;;4.55;;
67904;SDS011;54709;43.614;1.576;2023-03-31T04:13:38;13.90;;;3.72;;
67904;SDS011;54709;43.614;1.576;2023-03-31T04:16:03;11.30;;;3.55;;
67904;SDS011;54709;43.614;1.576;2023-03-31T04:18:29;11.43;;;3.78;;
67904;SDS011;54709;43.614;1.576;2023-03-31T04:20:54;10.88;;;3.70;;
67904;SDS011;54709;43.614;1.576;2023-03-31T04:23:31;14.95;;;4.30;;
67904;SDS011;54709;43.614;1.576;2023-03-31T04:25:57;14.52;;;3.60;;
67904;SDS011;54709;43.614;1.576;2023-03-31T04:28:22;10.02;;;3.40;;
67904;SDS011;54709;43.614;1.576;2023-03-31T04:30:51;10.25;;;3.80;;
67904;SDS011;54709;43.614;1.576;2023-03-31T04:33:18;11.38;;;3.85;;
67904;SDS011;54709;43.614;1.576;2023-03-31T04:35:45;11.80;;;3.50;;
67904;SDS011;54709;43.614;1.576;2023-03-31T04:38:14;12.85;;;3.92;;
67904;SDS011;54709;43.614;1.576;2023-03-31T04:40:44;13.30;;;3.53;;
67904;SDS011;54709;43.614;1.576;2023-03-31T04:43:13;11.65;;;3.78;;
67904;SDS011;54709;43.614;1.576;2023-03-31T04:45:39;12.15;;;3.92;;
67904;SDS011;54709;43.614;1.576;2023-03-31T04:48:05;13.52;;;4.28;;
67904;SDS011;54709;43.614;1.576;2023-03-31T04:50:31;13.32;;;4.00;;
67904;SDS011;54709;43.614;1.576;2023-03-31T04:52:56;13.20;;;4.00;;
67904;SDS011;54709;43.614;1.576;2023-03-31T04:55:22;10.73;;;4.20;;
67904;SDS011;54709;43.614;1.576;2023-03-31T04:57:47;11.85;;;3.67;;
67904;SDS011;54709;43.614;1.576;2023-03-31T05:00:13;12.25;;;3.50;;
67904;SDS011;54709;43.614;1.576;2023-03-31T05:02:39;12.32;;;3.85;;
67904;SDS011;54709;43.614;1.576;2023-03-31T05:05:05;14.85;;;4.20;;
67904;SDS011;54709;43.614;1.576;2023-03-31T05:07:30;11.82;;;3.92;;
67904;SDS011;54709;43.614;1.576;2023-03-31T05:09:56;10.10;;;3.63;;
67904;SDS011;54709;43.614;1.576;2023-03-31T05:12:21;16.80;;;4.10;;
67904;SDS011;54709;43.614;1.576;2023-03-31T05:14:46;10.40;;;4.03;;
67904;SDS011;54709;43.614;1.576;2023-03-31T05:17:12;11.07;;;3.80;;
67904;SDS011;54709;43.614;1.576;2023-03-31T05:19:37;11.32;;;3.65;;
67904;SDS011;54709;43.614;1.576;2023-03-31T05:22:02;13.25;;;3.70;;
67904;SDS011;54709;43.614;1.576;2023-03-31T05:24:28;16.25;;;3.70;;
67904;SDS011;54709;43.614;1.576;2023-03-31T05:26:54;15.77;;;3.97;;
67904;SDS011;54709;43.614;1.576;2023-03-31T05:29:21;9.02;;;3.22;;
67904;SDS011;54709;43.614;1.576;2023-03-31T05:31:47;10.93;;;3.67;;
67904;SDS011;54709;43.614;1.576;2023-03-31T05:34:13;11.20;;;3.60;;
67904;SDS011;54709;43.614;1.576;2023-03-31T05:36:39;9.90;;;3.50;;
67904;SDS011;54709;43.614;1.576;2023-03-31T05:39:05;13.00;;;3.47;;
67904;SDS011;54709;43.614;1.576;2023-03-31T05:41:31;11.52;;;3.47;;
67904;SDS011;54709;43.614;1.576;2023-03-31T05:43:56;15.63;;;4.10;;
67904;SDS011;54709;43.614;1.576;2023-03-31T05:46:22;14.10;;;4.07;;
67904;SDS011;54709;43.614;1.576;2023-03-31T05:48:47;11.88;;;3.40;;
67904;SDS011;54709;43.614;1.576;2023-03-31T05:51:12;12.13;;;3.45;;
67904;SDS011;54709;43.614;1.576;2023-03-31T05:53:38;11.70;;;3.33;;
67904;SDS011;54709;43.614;1.576;2023-03-31T05:56:04;11.52;;;3.50;;
67904;SDS011;54709;43.614;1.576;2023-03-31T05:58:32;11.85;;;2.95;;
67904;SDS011;54709;43.614;1.576;2023-03-31T06:03:35;11.60;;;3.13;;
67904;SDS011;54709;43.614;1.576;2023-03-31T06:06:02;11.40;;;3.80;;
67904;SDS011;54709;43.614;1.576;2023-03-31T06:08:29;10.25;;;3.50;;
67904;SDS011;54709;43.614;1.576;2023-03-31T06:10:55;13.60;;;4.43;;
67904;SDS011;54709;43.614;1.576;2023-03-31T06:13:21;11.77;;;3.20;;
67904;SDS011;54709;43.614;1.576;2023-03-31T06:15:53;14.48;;;3.75;;
67904;SDS011;54709;43.614;1.576;2023-03-31T06:18:22;10.45;;;3.60;;
67904;SDS011;54709;43.614;1.576;2023-03-31T06:20:48;10.95;;;4.15;;
67904;SDS011;54709;43.614;1.576;2023-03-31T06:23:15;12.65;;;3.83;;
67904;SDS011;54709;43.614;1.576;2023-03-31T06:25:40;17.15;;;4.78;;
67904;SDS011;54709;43.614;1.576;2023-03-31T06:28:05;11.70;;;4.10;;
67904;SDS011;54709;43.614;1.576;2023-03-31T06:30:31;17.20;;;4.25;;
67904;SDS011;54709;43.614;1.576;2023-03-31T06:32:57;11.93;;;3.92;;
67904;SDS011;54709;43.614;1.576;2023-03-31T06:35:22;10.82;;;3.92;;
67904;SDS011;54709;43.614;1.576;2023-03-31T06:37:48;11.82;;;3.60;;
67904;SDS011;54709;43.614;1.576;2023-03-31T06:40:13;14.63;;;4.18;;
67904;SDS011;54709;43.614;1.576;2023-03-31T06:42:39;14.20;;;4.00;;
67904;SDS011;54709;43.614;1.576;2023-03-31T06:45:04;13.35;;;3.78;;
67904;SDS011;54709;43.614;1.576;2023-03-31T06:47:30;13.13;;;3.60;;
67904;SDS011;54709;43.614;1.576;2023-03-31T06:49:55;10.85;;;3.60;;
67904;SDS011;54709;43.614;1.576;2023-03-31T06:52:21;13.65;;;4.15;;
67904;SDS011;54709;43.614;1.576;2023-03-31T06:54:46;13.68;;;4.70;;
67904;SDS011;54709;43.614;1.576;2023-03-31T06:57:12;18.83;;;4.40;;
67904;SDS011;54709;43.614;1.576;2023-03-31T06:59:37;12.35;;;4.00;;
67904;SDS011;54709;43.614;1.576;2023-03-31T07:02:02;18.52;;;4.57;;
67904;SDS011;54709;43.614;1.576;2023-03-31T07:04:28;17.65;;;4.05;;
67904;SDS011;54709;43.614;1.576;2023-03-31T07:06:54;13.55;;;4.32;;
67904;SDS011;54709;43.614;1.576;2023-03-31T07:09:19;19.67;;;4.45;;
67904;SDS011;54709;43.614;1.576;2023-03-31T07:11:47;14.68;;;4.15;;
67904;SDS011;54709;43.614;1.576;2023-03-31T07:14:13;14.10;;;4.30;;
67904;SDS011;54709;43.614;1.576;2023-03-31T07:16:38;17.88;;;4.63;;
67904;SDS011;54709;43.614;1.576;2023-03-31T07:19:05;16.67;;;4.80;;
67904;SDS011;54709;43.614;1.576;2023-03-31T07:21:31;25.70;;;4.90;;
67904;SDS011;54709;43.614;1.576;2023-03-31T07:23:56;18.90;;;4.78;;
67904;SDS011;54709;43.614;1.576;2023-03-31T07:26:22;21.85;;;5.20;;
67904;SDS011;54709;43.614;1.576;2023-03-31T07:28:48;23.85;;;5.30;;
67904;SDS011;54709;43.614;1.576;2023-03-31T07:31:13;25.08;;;5.55;;
67904;SDS011;54709;43.614;1.576;2023-03-31T07:33:39;34.45;;;6.10;;
67904;SDS011;54709;43.614;1.576;2023-03-31T07:36:05;34.22;;;6.45;;
67904;SDS011;54709;43.614;1.576;2023-03-31T07:38:32;32.25;;;6.25;;
67904;SDS011;54709;43.614;1.576;2023-03-31T07:40:57;26.08;;;6.07;;
67904;SDS011;54709;43.614;1.576;2023-03-31T07:43:23;38.58;;;6.32;;
67904;SDS011;54709;43.614;1.576;2023-03-31T07:45:48;33.75;;;7.13;;
67904;SDS011;54709;43.614;1.576;2023-03-31T07:48:14;35.97;;;7.38;;
67904;SDS011;54709;43.614;1.576;2023-03-31T07:50:39;35.97;;;6.63;;
67904;SDS011;54709;43.614;1.576;2023-03-31T07:53:05;38.63;;;7.00;;
67904;SDS011;54709;43.614;1.576;2023-03-31T07:55:30;32.65;;;6.50;;
67904;SDS011;54709;43.614;1.576;2023-03-31T07:57:56;40.15;;;6.80;;
67904;SDS011;54709;43.614;1.576;2023-03-31T08:00:21;34.25;;;6.65;;
67904;SDS011;54709;43.614;1.576;2023-03-31T08:02:47;41.70;;;6.85;;
67904;SDS011;54709;43.614;1.576;2023-03-31T08:05:14;42.00;;;7.75;;
67904;SDS011;54709;43.614;1.576;2023-03-31T08:07:41;37.30;;;7.45;;
67904;SDS011;54709;43.614;1.576;2023-03-31T08:10:09;42.20;;;7.38;;
67904;SDS011;54709;43.614;1.576;2023-03-31T08:12:36;39.67;;;7.20;;
67904;SDS011;54709;43.614;1.576;2023-03-31T08:15:02;38.35;;;7.22;;
67904;SDS011;54709;43.614;1.576;2023-03-31T08:17:28;30.73;;;6.53;;
67904;SDS011;54709;43.614;1.576;2023-03-31T08:19:53;36.47;;;6.63;;
67904;SDS011;54709;43.614;1.576;2023-03-31T08:22:19;37.63;;;6.45;;
67904;SDS011;54709;43.614;1.576;2023-03-31T08:24:45;37.03;;;6.93;;
67904;SDS011;54709;43.614;1.576;2023-03-31T08:27:11;38.50;;;7.25;;
67904;SDS011;54709;43.614;1.576;2023-03-31T08:29:36;35.75;;;7.15;;
67904;SDS011;54709;43.614;1.576;2023-03-31T08:32:01;35.95;;;7.40;;
67904;SDS011;54709;43.614;1.576;2023-03-31T08:34:27;32.72;;;6.22;;
67904;SDS011;54709;43.614;1.576;2023-03-31T08:36:52;36.20;;;6.40;;
67904;SDS011;54709;43.614;1.576;2023-03-31T08:39:17;29.23;;;6.40;;
67904;SDS011;54709;43.614;1.576;2023-03-31T08:46:49;38.55;;;6.60;;
67904;SDS011;54709;43.614;1.576;2023-03-31T08:49:16;37.20;;;7.35;;
67904;SDS011;54709;43.614;1.576;2023-03-31T08:51:50;39.15;;;6.80;;
67904;SDS011;54709;43.614;1.576;2023-03-31T08:54:25;38.75;;;6.68;;
67904;SDS011;54709;43.614;1.576;2023-03-31T08:56:58;40.05;;;7.28;;
67904;SDS011;54709;43.614;1.576;2023-03-31T08:59:28;38.08;;;8.10;;
67904;SDS011;54709;43.614;1.576;2023-03-31T09:01:59;36.13;;;7.90;;
67904;SDS011;54709;43.614;1.576;2023-03-31T09:10:13;42.85;;;7.53;;
67904;SDS011;54709;43.614;1.576;2023-03-31T09:12:53;36.70;;;7.35;;
67904;SDS011;54709;43.614;1.576;2023-03-31T09:17:53;43.08;;;8.27;;
67904;SDS011;54709;43.614;1.576;2023-03-31T09:20:27;44.78;;;8.10;;
67904;SDS011;54709;43.614;1.576;2023-03-31T09:23:07;46.08;;;7.72;;
67904;SDS011;54709;43.614;1.576;2023-03-31T09:25:35;42.90;;;8.75;;
67904;SDS011;54709;43.614;1.576;2023-03-31T09:28:03;43.28;;;7.78;;
67904;SDS011;54709;43.614;1.576;2023-03-31T09:30:32;42.25;;;8.65;;
67904;SDS011;54709;43.614;1.576;2023-03-31T09:33:15;40.80;;;8.32;;
67904;SDS011;54709;43.614;1.576;2023-03-31T09:35:42;37.13;;;8.13;;
67904;SDS011;54709;43.614;1.576;2023-03-31T09:38:11;40.38;;;7.80;;
67904;SDS011;54709;43.614;1.576;2023-03-31T09:40:38;40.17;;;8.05;;
67904;SDS011;54709;43.614;1.576;2023-03-31T09:45:51;45.00;;;8.13;;
67904;SDS011;54709;43.614;1.576;2023-03-31T09:48:18;37.38;;;7.53;;
67904;SDS011;54709;43.614;1.576;2023-03-31T09:50:47;44.33;;;8.02;;
67904;SDS011;54709;43.614;1.576;2023-03-31T09:53:20;42.75;;;8.63;;
67904;SDS011;54709;43.614;1.576;2023-03-31T09:55:51;43.85;;;8.50;;
67904;SDS011;54709;43.614;1.576;2023-03-31T09:58:18;42.30;;;8.25;;
67904;SDS011;54709;43.614;1.576;2023-03-31T10:01:04;46.03;;;8.60;;
67904;SDS011;54709;43.614;1.576;2023-03-31T10:03:30;41.63;;;7.80;;
67904;SDS011;54709;43.614;1.576;2023-03-31T10:06:00;39.13;;;7.97;;
67904;SDS011;54709;43.614;1.576;2023-03-31T10:08:31;47.05;;;8.20;;
67904;SDS011;54709;43.614;1.576;2023-03-31T10:18:51;34.15;;;8.18;;
67904;SDS011;54709;43.614;1.576;2023-03-31T10:21:20;46.80;;;8.93;;
67904;SDS011;54709;43.614;1.576;2023-03-31T10:23:48;41.95;;;8.00;;
67904;SDS011;54709;43.614;1.576;2023-03-31T10:26:36;36.60;;;8.00;;
67904;SDS011;54709;43.614;1.576;2023-03-31T10:29:00;42.85;;;8.43;;
67904;SDS011;54709;43.614;1.576;2023-03-31T10:31:32;37.45;;;7.40;;
67904;SDS011;54709;43.614;1.576;2023-03-31T10:34:00;41.13;;;7.93;;
67904;SDS011;54709;43.614;1.576;2023-03-31T10:36:29;36.35;;;7.75;;
67904;SDS011;54709;43.614;1.576;2023-03-31T10:38:56;35.15;;;7.80;;
67904;SDS011;54709;43.614;1.576;2023-03-31T10:41:25;32.45;;;7.30;;
67904;SDS011;54709;43.614;1.576;2023-03-31T10:43:52;38.58;;;7.07;;
67904;SDS011;54709;43.614;1.576;2023-03-31T10:47:15;41.92;;;7.88;;
67904;SDS011;54709;43.614;1.576;2023-03-31T10:51:56;35.67;;;7.57;;
67904;SDS011;54709;43.614;1.576;2023-03-31T10:54:23;33.50;;;7.38;;
67904;SDS011;54709;43.614;1.576;2023-03-31T10:56:50;37.10;;;7.72;;
67904;SDS011;54709;43.614;1.576;2023-03-31T11:09:52;38.92;;;9.43;;
67904;SDS011;54709;43.614;1.576;2023-03-31T11:12:24;36.00;;;8.88;;
67904;SDS011;54709;43.614;1.576;2023-03-31T11:26:02;32.00;;;8.98;;
67904;SDS011;54709;43.614;1.576;2023-03-31T11:37:10;40.30;;;9.27;;
67904;SDS011;54709;43.614;1.576;2023-03-31T11:42:41;27.83;;;9.40;;
67904;SDS011;54709;43.614;1.576;2023-03-31T11:47:38;39.85;;;8.93;;
67904;SDS011;54709;43.614;1.576;2023-03-31T11:50:09;34.72;;;8.50;;
67904;SDS011;54709;43.614;1.576;2023-03-31T11:52:40;25.85;;;7.28;;
67904;SDS011;54709;43.614;1.576;2023-03-31T11:55:15;23.77;;;6.85;;
67904;SDS011;54709;43.614;1.576;2023-03-31T11:58:02;27.30;;;5.85;;
67904;SDS011;54709;43.614;1.576;2023-03-31T12:03:20;24.40;;;5.75;;
67904;SDS011;54709;43.614;1.576;2023-03-31T12:05:49;25.80;;;6.03;;
67904;SDS011;54709;43.614;1.576;2023-03-31T12:08:32;22.48;;;5.95;;
67904;SDS011;54709;43.614;1.576;2023-03-31T12:11:07;26.17;;;6.03;;
67904;SDS011;54709;43.614;1.576;2023-03-31T12:16:39;28.13;;;6.90;;
67904;SDS011;54709;43.614;1.576;2023-03-31T12:22:29;26.35;;;6.30;;
67904;SDS011;54709;43.614;1.576;2023-03-31T12:24:58;29.95;;;6.60;;
67904;SDS011;54709;43.614;1.576;2023-03-31T12:30:01;25.20;;;5.88;;
67904;SDS011;54709;43.614;1.576;2023-03-31T12:32:30;26.33;;;6.63;;
67904;SDS011;54709;43.614;1.576;2023-03-31T12:40:42;22.48;;;6.30;;
67904;SDS011;54709;43.614;1.576;2023-03-31T12:59:33;28.40;;;6.65;;
67904;SDS011;54709;43.614;1.576;2023-03-31T13:04:33;23.75;;;6.20;;
67904;SDS011;54709;43.614;1.576;2023-03-31T13:07:01;36.08;;;6.50;;
67904;SDS011;54709;43.614;1.576;2023-03-31T13:12:18;26.88;;;6.18;;
67904;SDS011;54709;43.614;1.576;2023-03-31T13:14:46;28.70;;;6.25;;
67904;SDS011;54709;43.614;1.576;2023-03-31T13:17:21;23.90;;;6.00;;
67904;SDS011;54709;43.614;1.576;2023-03-31T13:19:49;22.50;;;5.65;;
67904;SDS011;54709;43.614;1.576;2023-03-31T13:22:34;30.23;;;5.50;;
67904;SDS011;54709;43.614;1.576;2023-03-31T13:27:58;30.10;;;5.82;;
67904;SDS011;54709;43.614;1.576;2023-03-31T13:33:08;25.55;;;5.70;;
67904;SDS011;54709;43.614;1.576;2023-03-31T13:35:36;31.63;;;5.78;;
67904;SDS011;54709;43.614;1.576;2023-03-31T13:46:06;24.30;;;5.30;;
67904;SDS011;54709;43.614;1.576;2023-03-31T13:48:47;29.95;;;6.18;;
67904;SDS011;54709;43.614;1.576;2023-03-31T14:02:10;30.38;;;6.00;;
67904;SDS011;54709;43.614;1.576;2023-03-31T14:07:14;27.40;;;5.53;;
67904;SDS011;54709;43.614;1.576;2023-03-31T14:09:42;28.48;;;5.72;;
67904;SDS011;54709;43.614;1.576;2023-03-31T14:12:30;23.42;;;5.47;;
67904;SDS011;54709;43.614;1.576;2023-03-31T14:15:00;29.98;;;5.35;;
67904;SDS011;54709;43.614;1.576;2023-03-31T14:17:26;20.15;;;4.97;;
67904;SDS011;54709;43.614;1.576;2023-03-31T14:20:03;21.65;;;5.03;;
67904;SDS011;54709;43.614;1.576;2023-03-31T14:25:52;19.15;;;5.20;;
67904;SDS011;54709;43.614;1.576;2023-03-31T14:31:29;20.38;;;4.35;;
67904;SDS011;54709;43.614;1.576;2023-03-31T14:37:04;22.90;;;4.25;;
67904;SDS011;54709;43.614;1.576;2023-03-31T14:39:35;22.30;;;4.00;;
67904;SDS011;54709;43.614;1.576;2023-03-31T14:42:03;21.98;;;4.55;;
67904;SDS011;54709;43.614;1.576;2023-03-31T14:44:32;19.67;;;4.43;;
67904;SDS011;54709;43.614;1.576;2023-03-31T14:46:58;21.25;;;4.38;;
67904;SDS011;54709;43.614;1.576;2023-03-31T14:49:25;21.80;;;4.43;;
67904;SDS011;54709;43.614;1.576;2023-03-31T14:51:57;20.17;;;3.85;;
67904;SDS011;54709;43.614;1.576;2023-03-31T14:54:24;24.80;;;4.38;;
67904;SDS011;54709;43.614;1.576;2023-03-31T14:56:53;24.00;;;4.50;;
67904;SDS011;54709;43.614;1.576;2023-03-31T14:59:21;19.55;;;3.83;;
67904;SDS011;54709;43.614;1.576;2023-03-31T15:01:49;23.27;;;3.85;;
67904;SDS011;54709;43.614;1.576;2023-03-31T15:04:16;19.70;;;4.07;;
67904;SDS011;54709;43.614;1.576;2023-03-31T15:06:45;16.55;;;3.83;;
67904;SDS011;54709;43.614;1.576;2023-03-31T15:09:15;18.48;;;4.15;;
67904;SDS011;54709;43.614;1.576;2023-03-31T15:11:45;14.43;;;3.50;;
67904;SDS011;54709;43.614;1.576;2023-03-31T15:14:11;20.33;;;4.20;;
67904;SDS011;54709;43.614;1.576;2023-03-31T15:16:40;21.05;;;4.00;;
67904;SDS011;54709;43.614;1.576;2023-03-31T15:19:20;19.33;;;3.97;;
67904;SDS011;54709;43.614;1.576;2023-03-31T15:21:57;18.02;;;4.07;;
67904;SDS011;54709;43.614;1.576;2023-03-31T15:24:29;19.08;;;4.47;;
67904;SDS011;54709;43.614;1.576;2023-03-31T15:26:56;15.02;;;3.60;;
67904;SDS011;54709;43.614;1.576;2023-03-31T15:29:43;21.05;;;4.57;;
67904;SDS011;54709;43.614;1.576;2023-03-31T15:34:46;21.38;;;4.65;;
67904;SDS011;54709;43.614;1.576;2023-03-31T15:37:12;20.10;;;4.15;;
67904;SDS011;54709;43.614;1.576;2023-03-31T15:39:37;20.85;;;4.10;;
67904;SDS011;54709;43.614;1.576;2023-03-31T15:42:04;24.75;;;4.22;;
67904;SDS011;54709;43.614;1.576;2023-03-31T15:44:46;26.25;;;4.50;;
67904;SDS011;54709;43.614;1.576;2023-03-31T15:47:16;22.85;;;4.32;;
67904;SDS011;54709;43.614;1.576;2023-03-31T15:49:49;21.80;;;4.47;;
67904;SDS011;54709;43.614;1.576;2023-03-31T15:52:21;22.83;;;4.47;;
67904;SDS011;54709;43.614;1.576;2023-03-31T15:54:50;17.75;;;3.83;;
67904;SDS011;54709;43.614;1.576;2023-03-31T15:57:16;22.10;;;3.92;;
67904;SDS011;54709;43.614;1.576;2023-03-31T15:59:44;22.05;;;4.38;;
67904;SDS011;54709;43.614;1.576;2023-03-31T16:02:15;23.23;;;4.55;;
67904;SDS011;54709;43.614;1.576;2023-03-31T16:04:42;27.73;;;4.65;;
67904;SDS011;54709;43.614;1.576;2023-03-31T16:07:24;19.77;;;4.60;;
67904;SDS011;54709;43.614;1.576;2023-03-31T16:09:53;24.50;;;4.43;;
67904;SDS011;54709;43.614;1.576;2023-03-31T16:12:41;20.80;;;4.40;;
67904;SDS011;54709;43.614;1.576;2023-03-31T16:15:16;24.75;;;4.70;;
67904;SDS011;54709;43.614;1.576;2023-03-31T16:17:45;16.75;;;4.22;;
67904;SDS011;54709;43.614;1.576;2023-03-31T16:20:23;25.45;;;5.10;;
67904;SDS011;54709;43.614;1.576;2023-03-31T16:22:53;25.35;;;4.82;;
67904;SDS011;54709;43.614;1.576;2023-03-31T16:25:21;21.55;;;4.65;;
67904;SDS011;54709;43.614;1.576;2023-03-31T16:27:50;21.20;;;4.78;;
67904;SDS011;54709;43.614;1.576;2023-03-31T16:30:19;25.70;;;4.40;;
67904;SDS011;54709;43.614;1.576;2023-03-31T16:35:42;20.90;;;4.85;;
67904;SDS011;54709;43.614;1.576;2023-03-31T16:38:10;19.42;;;4.65;;
67904;SDS011;54709;43.614;1.576;2023-03-31T16:40:40;25.23;;;4.88;;
67904;SDS011;54709;43.614;1.576;2023-03-31T16:45:32;24.98;;;5.18;;
67904;SDS011;54709;43.614;1.576;2023-03-31T16:47:57;21.58;;;5.10;;
67904;SDS011;54709;43.614;1.576;2023-03-31T16:50:23;22.35;;;5.20;;
67904;SDS011;54709;43.614;1.576;2023-03-31T16:52:48;24.52;;;5.18;;
67904;SDS011;54709;43.614;1.576;2023-03-31T16:55:14;21.25;;;5.38;;
67904;SDS011;54709;43.614;1.576;2023-03-31T16:57:39;23.15;;;4.68;;
67904;SDS011;54709;43.614;1.576;2023-03-31T17:00:05;26.42;;;4.75;;
67904;SDS011;54709;43.614;1.576;2023-03-31T17:02:31;20.00;;;4.57;;
67904;SDS011;54709;43.614;1.576;2023-03-31T17:04:56;25.08;;;5.07;;
67904;SDS011;54709;43.614;1.576;2023-03-31T17:07:22;21.30;;;4.50;;
67904;SDS011;54709;43.614;1.576;2023-03-31T17:09:47;25.63;;;5.35;;
67904;SDS011;54709;43.614;1.576;2023-03-31T17:12:13;28.13;;;5.43;;
67904;SDS011;54709;43.614;1.576;2023-03-31T17:14:38;22.60;;;4.75;;
67904;SDS011;54709;43.614;1.576;2023-03-31T17:17:03;23.98;;;5.18;;
67904;SDS011;54709;43.614;1.576;2023-03-31T17:19:29;21.60;;;4.78;;
67904;SDS011;54709;43.614;1.576;2023-03-31T17:21:54;26.25;;;4.90;;
67904;SDS011;54709;43.614;1.576;2023-03-31T17:24:20;25.08;;;4.57;;
67904;SDS011;54709;43.614;1.576;2023-03-31T17:26:46;30.73;;;5.55;;
67904;SDS011;54709;43.614;1.576;2023-03-31T17:29:11;25.70;;;4.88;;
67904;SDS011;54709;43.614;1.576;2023-03-31T17:31:37;23.80;;;4.55;;
67904;SDS011;54709;43.614;1.576;2023-03-31T17:34:02;24.60;;;4.72;;
67904;SDS011;54709;43.614;1.576;2023-03-31T17:36:28;29.17;;;5.35;;
67904;SDS011;54709;43.614;1.576;2023-03-31T17:38:53;24.73;;;4.82;;
67904;SDS011;54709;43.614;1.576;2023-03-31T17:41:19;26.63;;;5.53;;
67904;SDS011;54709;43.614;1.576;2023-03-31T17:43:45;24.98;;;5.13;;
67904;SDS011;54709;43.614;1.576;2023-03-31T17:46:13;24.58;;;4.88;;
67904;SDS011;54709;43.614;1.576;2023-03-31T17:48:39;22.30;;;4.88;;
67904;SDS011;54709;43.614;1.576;2023-03-31T17:51:06;27.90;;;5.15;;
67904;SDS011;54709;43.614;1.576;2023-03-31T17:53:33;25.13;;;4.68;;
67904;SDS011;54709;43.614;1.576;2023-03-31T17:55:59;26.15;;;5.00;;
67904;SDS011;54709;43.614;1.576;2023-03-31T17:58:25;26.33;;;5.32;;
67904;SDS011;54709;43.614;1.576;2023-03-31T18:00:51;27.80;;;5.75;;
67904;SDS011;54709;43.614;1.576;2023-03-31T18:03:17;25.38;;;4.80;;
67904;SDS011;54709;43.614;1.576;2023-03-31T18:05:42;22.98;;;5.18;;
67904;SDS011;54709;43.614;1.576;2023-03-31T18:08:08;26.38;;;5.22;;